createdAt,value
2022-10-11T00:00:31.453Z,14.60
2022-10-11T00:01:31.505Z,14.53
2022-10-11T00:02:31.422Z,14.50
2022-10-11T00:03:31.432Z,14.44
2022-10-11T00:04:31.401Z,14.48
2022-10-11T00:05:31.391Z,14.51
2022-10-11T00:06:31.382Z,14.54
2022-10-11T00:07:31.372Z,14.47
2022-10-11T00:08:31.412Z,14.35
2022-10-11T00:09:31.352Z,14.20
2022-10-11T00:10:31.334Z,14.18
2022-10-11T00:11:31.322Z,14.15
2022-10-11T00:12:31.310Z,14.15
2022-10-11T00:13:31.301Z,14.11
2022-10-11T00:14:31.304Z,14.12
2022-10-11T00:15:31.284Z,14.15
2022-10-11T00:16:31.272Z,14.14
2022-10-11T00:17:31.258Z,14.10
2022-10-11T00:18:31.246Z,14.08
2022-10-11T00:19:31.233Z,14.05
2022-10-11T00:20:31.233Z,13.96
2022-10-11T00:21:31.214Z,13.90
2022-10-11T00:22:31.192Z,13.92
2022-10-11T00:23:31.192Z,13.87
2022-10-11T00:24:31.181Z,13.92
2022-10-11T00:25:31.172Z,13.87
2022-10-11T00:26:31.163Z,13.85
2022-10-11T00:27:31.154Z,13.81
2022-10-11T00:28:31.205Z,13.74
2022-10-11T00:29:31.124Z,13.78
2022-10-11T00:30:31.114Z,13.74
2022-10-11T00:31:35.392Z,13.71
2022-10-11T00:32:31.083Z,13.70
2022-10-11T00:33:31.072Z,13.65
2022-10-11T00:34:31.064Z,13.62
2022-10-11T00:35:31.056Z,13.63
2022-10-11T00:36:31.053Z,13.57
2022-10-11T00:37:31.053Z,13.56
2022-10-11T00:38:32.088Z,13.54
2022-10-11T00:39:31.005Z,13.52
2022-10-11T00:40:30.995Z,13.46
2022-10-11T00:41:30.993Z,13.42
2022-10-11T00:42:30.972Z,13.42
2022-10-11T00:43:30.985Z,13.49
2022-10-11T00:44:30.954Z,13.46
2022-10-11T00:45:30.945Z,13.50
2022-10-11T00:46:30.931Z,13.52
2022-10-11T00:47:30.929Z,13.54
2022-10-11T00:48:30.930Z,13.53
2022-10-11T00:49:30.900Z,13.52
2022-10-11T00:50:30.883Z,13.42
2022-10-11T00:51:30.944Z,13.44
2022-10-11T00:52:30.863Z,13.38
2022-10-11T00:53:30.852Z,13.44
2022-10-11T00:54:30.862Z,13.50
2022-10-11T00:55:30.831Z,13.57
2022-10-11T00:56:30.813Z,13.60
2022-10-11T00:57:30.813Z,13.60
2022-10-11T00:58:30.795Z,13.60
2022-10-11T00:59:30.784Z,13.68
2022-10-11T01:00:30.803Z,13.74
2022-10-11T01:01:30.802Z,13.72
2022-10-11T01:02:30.746Z,13.78
2022-10-11T01:03:30.745Z,13.75
2022-10-11T01:04:30.723Z,13.78
2022-10-11T01:05:30.819Z,13.85
2022-10-11T01:06:30.723Z,13.87
2022-10-11T01:07:30.693Z,13.86
2022-10-11T01:08:30.684Z,13.78
2022-10-11T01:09:30.672Z,13.83
2022-10-11T01:10:30.654Z,13.89
2022-10-11T01:11:30.643Z,13.81
2022-10-11T01:12:30.677Z,13.77
2022-10-11T01:13:30.623Z,13.85
2022-10-11T01:14:30.613Z,13.68
2022-10-11T01:15:30.603Z,13.72
2022-10-11T01:16:30.585Z,13.81
2022-10-11T01:17:30.577Z,13.83
2022-10-11T01:18:30.587Z,13.90
2022-10-11T01:19:30.554Z,13.87
2022-10-11T01:20:30.544Z,13.83
2022-10-11T01:21:30.536Z,13.81
2022-10-11T01:22:30.524Z,13.75
2022-10-11T01:23:30.514Z,13.75
2022-10-11T01:24:30.525Z,13.68
2022-10-11T01:25:30.495Z,13.75
2022-10-11T01:26:30.477Z,13.75
2022-10-11T01:27:30.466Z,13.77
2022-10-11T01:28:30.500Z,13.79
2022-10-11T01:29:30.484Z,13.74
2022-10-11T01:30:30.432Z,13.68
2022-10-11T01:31:30.423Z,13.68
2022-10-11T01:32:30.413Z,13.70
2022-10-11T01:33:30.394Z,13.65
2022-10-11T01:34:30.384Z,13.63
2022-10-11T01:35:30.425Z,13.50
2022-10-11T01:36:30.366Z,13.50
2022-10-11T01:37:30.354Z,13.42
2022-10-11T01:38:30.343Z,13.46
2022-10-11T01:39:30.333Z,13.50
2022-10-11T01:40:30.317Z,13.46
2022-10-11T01:41:30.335Z,13.37
2022-10-11T01:42:30.294Z,13.30
2022-10-11T01:43:30.284Z,13.23
2022-10-11T01:44:30.274Z,13.20
2022-10-11T01:45:30.264Z,13.22
2022-10-11T01:46:30.248Z,13.20
2022-10-11T01:47:30.264Z,13.12
2022-10-11T01:48:30.227Z,13.05
2022-10-11T01:49:30.226Z,12.98
2022-10-11T01:50:30.209Z,12.93
2022-10-11T01:51:30.196Z,12.94
2022-10-11T01:52:30.185Z,12.94
2022-10-11T01:53:30.205Z,12.95
2022-10-11T01:54:49.805Z,12.93
2022-10-11T01:55:31.154Z,12.90
2022-10-11T01:56:30.135Z,12.91
2022-10-11T01:57:30.133Z,12.82
2022-10-11T01:58:30.135Z,12.75
2022-10-11T01:59:30.124Z,12.73
2022-10-11T02:00:30.095Z,12.67
2022-10-11T02:01:30.136Z,12.61
2022-10-11T02:02:30.075Z,12.58
2022-10-11T02:03:30.065Z,12.60
2022-10-11T02:04:30.074Z,12.50
2022-10-11T02:05:30.045Z,12.61
2022-10-11T02:06:30.025Z,12.65
2022-10-11T02:07:30.015Z,12.58
2022-10-11T02:08:29.998Z,12.57
2022-10-11T02:09:29.994Z,12.49
2022-10-11T02:10:30.005Z,12.53
2022-10-11T02:11:29.974Z,12.46
2022-10-11T02:12:29.956Z,12.46
2022-10-11T02:13:29.945Z,12.40
2022-10-11T02:14:29.936Z,12.32
2022-10-11T02:15:29.925Z,12.25
2022-10-11T02:16:29.958Z,12.10
2022-10-11T02:17:29.905Z,12.15
2022-10-11T02:18:29.892Z,12.15
2022-10-11T02:19:29.898Z,12.13
2022-10-11T02:20:29.865Z,12.13
2022-10-11T02:21:29.886Z,12.07
2022-10-11T02:22:29.865Z,11.99
2022-10-11T02:23:29.839Z,11.94
2022-10-11T02:24:29.829Z,11.88
2022-10-11T02:25:29.817Z,11.86
2022-10-11T02:26:29.805Z,11.81
2022-10-11T02:27:29.815Z,11.78
2022-10-11T02:28:29.836Z,11.75
2022-10-11T02:29:29.777Z,11.72
2022-10-11T02:30:29.755Z,11.68
2022-10-11T02:31:29.745Z,11.66
2022-10-11T02:32:29.755Z,11.65
2022-10-11T02:33:29.756Z,11.57
2022-10-11T02:34:29.715Z,11.57
2022-10-11T02:35:29.704Z,11.52
2022-10-11T02:36:29.686Z,11.52
2022-10-11T02:37:29.676Z,11.57
2022-10-11T02:38:29.696Z,11.54
2022-10-11T02:39:29.656Z,11.48
2022-10-11T02:40:29.645Z,11.41
2022-10-11T02:41:29.635Z,11.35
2022-10-11T02:42:29.616Z,11.32
2022-10-11T02:43:29.617Z,11.36
2022-10-11T02:44:29.615Z,11.25
2022-10-11T02:45:29.594Z,11.26
2022-10-11T02:46:29.575Z,11.29
2022-10-11T02:47:29.570Z,11.29
2022-10-11T02:48:29.570Z,11.30
2022-10-11T02:49:29.545Z,11.30
2022-10-11T02:50:29.549Z,11.30
2022-10-11T02:51:29.526Z,11.27
2022-10-11T02:52:29.506Z,11.25
2022-10-11T02:53:29.495Z,11.22
2022-10-11T02:54:29.489Z,11.14
2022-10-11T02:55:29.476Z,11.15
2022-10-11T02:56:29.476Z,11.12
2022-10-11T02:57:29.456Z,11.12
2022-10-11T02:58:29.437Z,11.12
2022-10-11T02:59:29.436Z,11.11
2022-10-11T03:00:29.415Z,11.08
2022-10-11T03:01:29.485Z,11.05
2022-10-11T03:02:29.394Z,11.02
2022-10-11T03:03:29.385Z,10.99
2022-10-11T03:04:29.375Z,10.93
2022-10-11T03:05:29.365Z,10.92
2022-10-11T03:06:29.348Z,10.92
2022-10-11T03:07:29.364Z,10.81
2022-10-11T03:08:29.324Z,10.78
2022-10-11T03:09:29.316Z,10.74
2022-10-11T03:10:29.305Z,10.71
2022-10-11T03:11:29.304Z,10.67
2022-10-11T03:12:29.286Z,10.63
2022-10-11T03:13:29.295Z,10.60
2022-10-11T03:14:29.264Z,10.49
2022-10-11T03:15:29.253Z,10.42
2022-10-11T03:16:29.235Z,10.44
2022-10-11T03:17:36.566Z,10.44
2022-10-11T03:18:30.265Z,10.42
2022-10-11T03:19:29.204Z,10.35
2022-10-11T03:20:29.194Z,10.35
2022-10-11T03:21:29.185Z,10.30
2022-10-11T03:22:29.174Z,10.28
2022-10-11T03:23:29.163Z,10.25
2022-10-11T03:24:29.175Z,10.23
2022-10-11T03:25:29.143Z,10.17
2022-10-11T03:26:29.125Z,10.09
2022-10-11T03:27:29.114Z,10.02
2022-10-11T03:28:29.185Z,9.98
2022-10-11T03:29:29.094Z,9.98
2022-10-11T03:30:29.114Z,9.97
2022-10-11T03:31:29.074Z,9.98
2022-10-11T03:32:29.054Z,9.98
2022-10-11T03:33:29.047Z,9.97
2022-10-11T03:34:29.036Z,9.95
2022-10-11T03:35:29.025Z,9.97
2022-10-11T03:36:29.036Z,9.95
2022-10-11T03:37:29.005Z,9.92
2022-10-11T03:38:28.994Z,9.94
2022-10-11T03:39:28.985Z,9.97
2022-10-11T03:40:28.974Z,9.94
2022-10-11T03:41:28.964Z,9.95
2022-10-11T03:42:28.964Z,9.92
2022-10-11T03:43:28.944Z,9.91
2022-10-11T03:44:35.964Z,9.95
2022-10-11T03:45:28.916Z,9.91
2022-10-11T03:46:28.914Z,9.87
2022-10-11T03:47:28.916Z,9.86
2022-10-11T03:48:28.884Z,9.84
2022-10-11T03:49:28.874Z,9.80
2022-10-11T03:50:28.864Z,9.80
2022-10-11T03:51:28.844Z,9.82
2022-10-11T03:52:28.834Z,9.79
2022-10-11T03:53:28.853Z,9.84
2022-10-11T03:54:28.814Z,9.76
2022-10-11T03:55:28.802Z,9.69
2022-10-11T03:56:28.793Z,9.73
2022-10-11T03:57:28.783Z,9.66
2022-10-11T03:58:28.774Z,9.64
2022-10-11T03:59:28.783Z,9.59
2022-10-11T04:00:28.768Z,9.58
2022-10-11T04:01:28.773Z,9.56
2022-10-11T04:02:28.723Z,9.50
2022-10-11T04:03:28.713Z,9.44
2022-10-11T04:04:28.703Z,9.44
2022-10-11T04:05:28.712Z,9.55
2022-10-11T04:06:28.684Z,9.65
2022-10-11T04:07:28.664Z,9.66
2022-10-11T04:08:28.663Z,9.72
2022-10-11T04:09:28.645Z,9.79
2022-10-11T04:10:28.638Z,9.80
2022-10-11T04:11:28.643Z,9.80
2022-10-11T04:12:28.625Z,9.74
2022-10-11T04:13:28.604Z,9.72
2022-10-11T04:14:28.596Z,9.66
2022-10-11T04:15:28.581Z,9.66
2022-10-11T04:16:28.583Z,9.66
2022-10-11T04:17:28.574Z,9.72
2022-10-11T04:18:28.573Z,9.77
2022-10-11T04:19:28.534Z,9.77
2022-10-11T04:20:28.523Z,9.82
2022-10-11T04:21:28.511Z,9.79
2022-10-11T04:22:28.523Z,9.79
2022-10-11T04:23:28.493Z,9.73
2022-10-11T04:24:28.484Z,9.69
2022-10-11T04:25:28.465Z,9.68
2022-10-11T04:26:28.465Z,9.69
2022-10-11T04:27:28.443Z,9.77
2022-10-11T04:28:28.520Z,9.76
2022-10-11T04:29:32.397Z,9.64
2022-10-11T04:30:28.413Z,9.58
2022-10-11T04:31:28.402Z,9.58
2022-10-11T04:32:28.393Z,9.55
2022-10-11T04:33:28.395Z,9.44
2022-10-11T04:34:28.383Z,9.32
2022-10-11T04:35:28.354Z,9.25
2022-10-11T04:36:28.343Z,9.19
2022-10-11T04:37:28.332Z,9.21
2022-10-11T04:38:28.322Z,9.19
2022-10-11T04:39:28.330Z,9.21
2022-10-11T04:40:28.302Z,9.22
2022-10-11T04:41:28.290Z,9.18
2022-10-11T04:42:28.281Z,9.08
2022-10-11T04:43:28.263Z,9.02
2022-10-11T04:44:28.252Z,8.91
2022-10-11T04:45:28.272Z,8.84
2022-10-11T04:46:28.233Z,8.74
2022-10-11T04:47:28.221Z,8.67
2022-10-11T04:48:28.212Z,8.66
2022-10-11T04:49:28.194Z,8.69
2022-10-11T04:50:28.192Z,8.71
2022-10-11T04:51:28.192Z,8.70
2022-10-11T04:52:28.162Z,8.73
2022-10-11T04:53:28.157Z,8.69
2022-10-11T04:54:28.143Z,8.71
2022-10-11T04:55:28.129Z,8.69
2022-10-11T04:56:28.141Z,8.69
2022-10-11T04:57:28.102Z,8.66
2022-10-11T04:58:28.101Z,8.66
2022-10-11T04:59:28.082Z,8.63
2022-10-11T05:00:28.085Z,8.61
2022-10-11T05:01:28.061Z,8.63
2022-10-11T05:02:28.136Z,8.61
2022-10-11T05:03:28.039Z,8.60
2022-10-11T05:04:28.031Z,8.56
2022-10-11T05:05:28.011Z,8.53
2022-10-11T05:06:28.001Z,8.51
2022-10-11T05:07:28.013Z,8.45
2022-10-11T05:08:27.983Z,8.44
2022-10-11T05:09:27.970Z,8.45
2022-10-11T05:10:27.961Z,8.45
2022-10-11T05:11:27.941Z,8.42
2022-10-11T05:12:27.931Z,8.49
2022-10-11T05:13:27.940Z,8.49
2022-10-11T05:14:27.912Z,8.53
2022-10-11T05:15:27.903Z,8.60
2022-10-11T05:16:27.902Z,8.61
2022-10-11T05:17:27.879Z,8.69
2022-10-11T05:18:27.911Z,8.71
2022-10-11T05:19:27.851Z,8.71
2022-10-11T05:20:27.842Z,8.82
2022-10-11T05:21:27.830Z,8.82
2022-10-11T05:22:27.821Z,8.84
2022-10-11T05:23:27.808Z,8.81
2022-10-11T05:24:27.853Z,8.78
2022-10-11T05:25:27.785Z,8.76
2022-10-11T05:26:27.783Z,8.76
2022-10-11T05:27:27.762Z,8.79
2022-10-11T05:28:27.771Z,8.84
2022-10-11T05:29:27.740Z,8.79
2022-10-11T05:30:27.752Z,8.79
2022-10-11T05:31:27.719Z,8.73
2022-10-11T05:32:27.975Z,8.81
2022-10-11T05:33:27.699Z,8.79
2022-10-11T05:34:27.699Z,8.78
2022-10-11T05:35:27.671Z,8.74
2022-10-11T05:36:27.691Z,8.74
2022-10-11T05:37:27.649Z,8.71
2022-10-11T05:38:27.760Z,8.74
2022-10-11T05:39:27.621Z,8.74
2022-10-11T05:40:27.619Z,8.70
2022-10-11T05:41:27.602Z,8.70
2022-10-11T05:42:27.620Z,8.73
2022-10-11T05:43:27.579Z,8.76
2022-10-11T05:44:27.570Z,8.74
2022-10-11T05:45:27.550Z,8.76
2022-10-11T05:46:27.559Z,8.73
2022-10-11T05:47:27.533Z,8.70
2022-10-11T05:48:27.548Z,8.71
2022-10-11T05:49:27.510Z,8.67
2022-10-11T05:50:27.499Z,8.66
2022-10-11T05:51:27.489Z,8.69
2022-10-11T05:52:27.479Z,8.67
2022-10-11T05:53:27.463Z,8.64
2022-10-11T05:54:27.470Z,8.66
2022-10-11T05:55:27.442Z,8.69
2022-10-11T05:56:27.438Z,8.67
2022-10-11T05:57:27.421Z,8.66
2022-10-11T05:58:27.417Z,8.66
2022-10-11T05:59:27.428Z,8.66
2022-10-11T06:00:27.389Z,8.66
2022-10-11T06:01:27.418Z,8.64
2022-10-11T06:02:27.359Z,8.63
2022-10-11T06:03:27.349Z,8.60
2022-10-11T06:04:27.339Z,8.58
2022-10-11T06:05:27.347Z,8.63
2022-10-11T06:06:27.319Z,8.64
2022-10-11T06:07:27.342Z,8.52
2022-10-11T06:08:27.297Z,8.63
2022-10-11T06:09:27.279Z,8.67
2022-10-11T06:10:27.269Z,8.73
2022-10-11T06:11:27.281Z,8.70
2022-10-11T06:12:27.256Z,8.73
2022-10-11T06:13:27.229Z,8.73
2022-10-11T06:14:27.229Z,8.70
2022-10-11T06:15:27.218Z,8.67
2022-10-11T06:16:27.225Z,8.70
2022-10-11T06:17:27.189Z,8.71
2022-10-11T06:18:27.178Z,8.70
2022-10-11T06:19:27.173Z,8.73
2022-10-11T06:20:27.180Z,8.73
2022-10-11T06:21:27.138Z,8.74
2022-10-11T06:22:27.149Z,8.84
2022-10-11T06:23:27.130Z,8.88
2022-10-11T06:24:27.109Z,9.00
2022-10-11T06:25:27.098Z,9.00
2022-10-11T06:26:27.088Z,9.06
2022-10-11T06:27:27.102Z,9.16
2022-10-11T06:28:27.117Z,9.22
2022-10-11T06:29:27.049Z,9.34
2022-10-11T06:30:27.038Z,9.47
2022-10-11T06:31:27.027Z,9.61
2022-10-11T06:32:27.020Z,9.72
2022-10-11T06:33:27.035Z,9.86
2022-10-11T06:34:26.997Z,10.17
2022-10-11T06:35:26.978Z,10.41
2022-10-11T06:36:26.987Z,10.51
2022-10-11T06:37:26.982Z,10.68
2022-10-11T06:38:26.955Z,10.72
2022-10-11T06:39:26.958Z,10.74
2022-10-11T06:40:26.973Z,11.04
2022-10-11T06:41:26.917Z,11.08
2022-10-11T06:42:26.908Z,11.44
2022-10-11T06:43:26.897Z,11.45
2022-10-11T06:44:26.917Z,11.37
2022-10-11T06:45:26.867Z,11.45
2022-10-11T06:46:26.860Z,11.65
2022-10-11T06:47:26.848Z,11.81
2022-10-11T06:48:26.838Z,12.00
2022-10-11T06:49:26.826Z,12.04
2022-10-11T06:50:54.279Z,12.20
2022-10-11T06:51:27.798Z,12.17
2022-10-11T06:52:26.815Z,12.39
2022-10-11T06:53:26.788Z,12.61
2022-10-11T06:54:26.767Z,12.91
2022-10-11T06:55:26.758Z,13.22
2022-10-11T06:56:26.767Z,13.31
2022-10-11T06:57:26.728Z,13.52
2022-10-11T06:58:26.726Z,13.70
2022-10-11T06:59:26.716Z,13.90
2022-10-11T07:00:26.764Z,14.25
2022-10-11T07:01:26.815Z,14.29
2022-10-11T07:02:26.698Z,14.14
2022-10-11T07:03:26.669Z,13.70
2022-10-11T07:04:26.659Z,13.71
2022-10-11T07:05:26.648Z,13.83
2022-10-11T07:06:26.638Z,13.89
2022-10-11T07:07:26.648Z,14.12
2022-10-11T07:08:26.618Z,14.32
2022-10-11T07:09:26.612Z,14.15
2022-10-11T07:10:26.590Z,13.99
2022-10-11T07:11:26.604Z,14.37
2022-10-11T07:12:26.586Z,14.69
2022-10-11T07:13:26.588Z,15.11
2022-10-11T07:14:26.549Z,15.46
2022-10-11T07:15:26.549Z,15.57
2022-10-11T07:16:26.539Z,15.61
2022-10-11T07:17:26.517Z,15.67
2022-10-11T07:18:26.530Z,16.01
2022-10-11T07:19:26.511Z,16.49
2022-10-11T07:20:26.489Z,16.71
2022-10-11T07:21:26.459Z,16.84
2022-10-11T07:22:26.465Z,17.31
2022-10-11T07:23:26.447Z,17.71
2022-10-11T07:24:26.430Z,17.97
2022-10-11T07:25:26.438Z,18.16
2022-10-11T07:26:26.410Z,18.23
2022-10-11T07:27:26.399Z,18.31
2022-10-11T07:28:26.549Z,18.44
2022-10-11T07:29:26.370Z,18.15
2022-10-11T07:30:26.389Z,17.72
2022-10-11T07:31:26.352Z,17.72
2022-10-11T07:32:26.341Z,17.97
2022-10-11T07:33:26.343Z,18.13
2022-10-11T07:34:26.321Z,18.07
2022-10-11T07:35:26.310Z,18.37
2022-10-11T07:36:26.323Z,18.23
2022-10-11T07:37:26.282Z,17.41
2022-10-11T07:38:26.273Z,16.93
2022-10-11T07:39:26.262Z,16.96
2022-10-11T07:40:26.263Z,16.90
2022-10-11T07:41:26.241Z,16.93
2022-10-11T07:42:26.271Z,16.96
2022-10-11T07:43:26.220Z,17.42
2022-10-11T07:44:26.229Z,17.56
2022-10-11T07:45:26.193Z,17.70
2022-10-11T07:46:26.192Z,17.85
2022-10-11T07:47:26.193Z,18.07
2022-10-11T07:48:26.174Z,17.56
2022-10-11T07:49:26.151Z,17.30
2022-10-11T07:50:26.143Z,17.23
2022-10-11T07:51:26.134Z,16.53
2022-10-11T07:52:26.123Z,15.94
2022-10-11T07:53:26.135Z,16.01
2022-10-11T07:54:26.105Z,16.38
2022-10-11T07:55:26.084Z,16.29
2022-10-11T07:56:26.083Z,16.50
2022-10-11T07:57:26.064Z,16.84
2022-10-11T07:58:26.054Z,17.30
2022-10-11T07:59:26.055Z,17.60
2022-10-11T08:00:26.033Z,17.71
2022-10-11T08:01:26.117Z,17.70
2022-10-11T08:02:26.005Z,17.12
2022-10-11T08:03:26.005Z,17.12
2022-10-11T08:04:26.005Z,17.08
2022-10-11T08:05:25.976Z,17.02
2022-10-11T08:06:25.997Z,16.93
2022-10-11T08:07:25.955Z,17.12
2022-10-11T08:08:25.945Z,16.94
2022-10-11T08:09:25.946Z,17.34
2022-10-11T08:10:25.936Z,17.72
2022-10-11T08:11:25.913Z,18.28
2022-10-11T08:12:25.896Z,18.50
2022-10-11T08:13:25.887Z,18.86
2022-10-11T08:14:25.891Z,19.18
2022-10-11T08:15:25.902Z,19.55
2022-10-11T08:16:25.860Z,19.47
2022-10-11T08:17:25.847Z,19.51
2022-10-11T08:18:25.830Z,19.18
2022-10-11T08:19:25.819Z,18.84
2022-10-11T08:20:25.808Z,18.83
2022-10-11T08:21:25.818Z,18.96
2022-10-11T08:22:25.787Z,19.04
2022-10-11T08:23:25.779Z,19.44
2022-10-11T08:24:25.768Z,19.74
2022-10-11T08:25:25.756Z,19.77
2022-10-11T08:26:25.739Z,19.37
2022-10-11T08:27:25.759Z,18.62
2022-10-11T08:28:25.881Z,18.08
2022-10-11T08:29:25.708Z,18.19
2022-10-11T08:30:25.697Z,18.23
2022-10-11T08:31:25.690Z,18.35
2022-10-11T08:32:25.689Z,18.95
2022-10-11T08:33:25.671Z,19.19
2022-10-11T08:34:25.648Z,19.09
2022-10-11T08:35:25.648Z,19.41
2022-10-11T08:36:25.621Z,18.47
2022-10-11T08:37:25.693Z,17.56
2022-10-11T08:38:25.629Z,17.59
2022-10-11T08:39:25.600Z,17.49
2022-10-11T08:40:25.601Z,17.48
2022-10-11T08:41:25.572Z,17.64
2022-10-11T08:42:25.560Z,17.90
2022-10-11T08:43:25.553Z,17.90
2022-10-11T08:44:25.560Z,18.45
2022-10-11T08:45:25.530Z,18.53
2022-10-11T08:46:25.522Z,18.66
2022-10-11T08:47:25.512Z,17.98
2022-10-11T08:48:25.514Z,17.97
2022-10-11T08:49:25.492Z,18.16
2022-10-11T08:50:25.523Z,18.00
2022-10-11T08:51:25.467Z,18.22
2022-10-11T08:52:25.453Z,18.52
2022-10-11T08:53:25.444Z,18.23
2022-10-11T08:54:25.451Z,17.70
2022-10-11T08:55:25.423Z,17.67
2022-10-11T08:56:25.423Z,17.56
2022-10-11T08:57:25.397Z,17.71
2022-10-11T08:58:25.384Z,18.25
2022-10-11T08:59:25.374Z,18.52
2022-10-11T09:00:25.354Z,18.26
2022-10-11T09:01:25.390Z,18.43
2022-10-11T09:02:25.394Z,18.33
2022-10-11T09:03:25.326Z,18.10
2022-10-11T09:04:25.307Z,18.08
2022-10-11T09:05:25.304Z,18.33
2022-10-11T09:06:25.293Z,18.25
2022-10-11T09:07:25.282Z,17.97
2022-10-11T09:08:25.295Z,17.82
2022-10-11T09:09:25.264Z,17.64
2022-10-11T09:10:25.246Z,17.46
2022-10-11T09:11:25.237Z,16.71
2022-10-11T09:12:29.439Z,16.09
2022-10-11T09:13:26.236Z,15.64
2022-10-11T09:14:25.197Z,15.51
2022-10-11T09:15:25.197Z,15.80
2022-10-11T09:16:25.179Z,16.00
2022-10-11T09:17:25.167Z,15.77
2022-10-11T09:18:25.155Z,15.77
2022-10-11T09:19:25.178Z,16.00
2022-10-11T09:20:25.127Z,16.04
2022-10-11T09:21:25.127Z,15.95
2022-10-11T09:22:30.265Z,15.90
2022-10-11T09:23:26.097Z,16.02
2022-10-11T09:24:25.087Z,15.68
2022-10-11T09:25:25.096Z,15.44
2022-10-11T09:26:25.067Z,15.35
2022-10-11T09:27:49.923Z,15.46
2022-10-11T09:28:26.075Z,15.67
2022-10-11T09:29:25.054Z,15.75
2022-10-11T09:30:25.068Z,15.72
2022-10-11T09:31:25.019Z,15.35
2022-10-11T09:32:25.022Z,15.22
2022-10-11T09:33:24.989Z,15.15
2022-10-11T09:34:24.976Z,14.99
2022-10-11T09:35:24.972Z,14.82
2022-10-11T09:36:24.989Z,14.84
2022-10-11T09:37:24.948Z,14.99
2022-10-11T09:38:24.929Z,15.15
2022-10-11T09:39:24.929Z,15.21
2022-10-11T09:40:24.899Z,15.21
2022-10-11T09:41:24.898Z,15.21
2022-10-11T09:42:24.907Z,15.24
2022-10-11T09:43:24.879Z,15.46
2022-10-11T09:44:31.914Z,15.44
2022-10-11T09:45:24.855Z,15.52
2022-10-11T09:46:24.843Z,15.72
2022-10-11T09:47:24.837Z,15.79
2022-10-11T09:48:24.836Z,15.94
2022-10-11T09:49:24.813Z,15.77
2022-10-11T09:50:24.795Z,15.91
2022-10-11T09:51:24.785Z,15.86
2022-10-11T09:52:24.767Z,15.86
2022-10-11T09:53:24.787Z,15.80
2022-10-11T09:54:24.747Z,15.90
2022-10-11T09:55:24.745Z,15.95
2022-10-11T09:56:24.726Z,16.05
2022-10-11T09:57:24.717Z,16.16
2022-10-11T09:58:24.704Z,16.12
2022-10-11T09:59:24.706Z,16.12
2022-10-11T10:00:24.679Z,16.09
2022-10-11T10:01:24.695Z,16.16
2022-10-11T10:02:24.656Z,16.23
2022-10-11T10:03:24.646Z,16.29
2022-10-11T10:04:24.685Z,16.39
2022-10-11T10:05:24.626Z,16.57
2022-10-11T10:06:24.606Z,16.65
2022-10-11T10:07:24.606Z,16.76
2022-10-11T10:08:24.595Z,16.99
2022-10-11T10:09:24.588Z,16.75
2022-10-11T10:10:24.594Z,16.56
2022-10-11T10:11:24.558Z,16.47
2022-10-11T10:12:24.545Z,16.54
2022-10-11T10:13:24.537Z,16.57
2022-10-11T10:14:24.527Z,16.51
2022-10-11T10:15:24.517Z,16.35
2022-10-11T10:16:24.531Z,16.28
2022-10-11T10:17:24.497Z,16.31
2022-10-11T10:18:24.479Z,16.36
2022-10-11T10:19:24.469Z,16.28
2022-10-11T10:20:24.460Z,16.23
2022-10-11T10:21:24.448Z,16.16
2022-10-11T10:22:24.467Z,16.08
2022-10-11T10:23:24.427Z,15.95
2022-10-11T10:24:24.428Z,15.94
2022-10-11T10:25:24.407Z,15.98
2022-10-11T10:26:24.391Z,16.05
2022-10-11T10:27:24.378Z,16.23
2022-10-11T10:28:24.431Z,16.36
2022-10-11T10:29:24.357Z,16.31
2022-10-11T10:30:24.339Z,16.32
2022-10-11T10:31:24.338Z,16.26
2022-10-11T10:32:24.318Z,16.39
2022-10-11T10:33:24.308Z,16.60
2022-10-11T10:34:24.318Z,16.51
2022-10-11T10:35:24.289Z,16.42
2022-10-11T10:36:24.270Z,16.65
2022-10-11T10:37:24.269Z,16.78
2022-10-11T10:38:26.578Z,16.91
2022-10-11T10:39:24.241Z,16.90
2022-10-11T10:40:24.265Z,16.91
2022-10-11T10:41:24.219Z,16.81
2022-10-11T10:42:24.217Z,16.66
2022-10-11T10:43:24.199Z,16.74
2022-10-11T10:44:24.179Z,16.54
2022-10-11T10:45:24.169Z,16.61
2022-10-11T10:46:24.179Z,16.51
2022-10-11T10:47:24.151Z,16.46
2022-10-11T10:48:24.139Z,16.47
2022-10-11T10:49:51.990Z,16.50
2022-10-11T10:50:25.110Z,16.53
2022-10-11T10:51:24.112Z,16.36
2022-10-11T10:52:24.119Z,16.49
2022-10-11T10:53:24.081Z,16.64
2022-10-11T10:54:24.067Z,16.65
2022-10-11T10:55:24.060Z,16.78
2022-10-11T10:56:24.050Z,16.71
2022-10-11T10:57:24.041Z,16.33
2022-10-11T10:58:24.042Z,16.32
2022-10-11T10:59:24.017Z,16.35
2022-10-11T11:00:24.002Z,16.39
2022-10-11T11:01:24.076Z,16.53
2022-10-11T11:02:40.618Z,16.60
2022-10-11T11:03:24.991Z,16.56
2022-10-11T11:04:23.959Z,16.56
2022-10-11T11:05:23.941Z,16.54
2022-10-11T11:06:23.931Z,16.41
2022-10-11T11:07:23.921Z,16.38
2022-10-11T11:08:23.911Z,16.58
2022-10-11T11:09:23.920Z,16.81
2022-10-11T11:10:23.887Z,16.89
2022-10-11T11:11:23.889Z,17.01
2022-10-11T11:12:24.649Z,16.97
2022-10-11T11:13:23.851Z,17.08
2022-10-11T11:14:23.863Z,17.08
2022-10-11T11:15:31.260Z,16.91
2022-10-11T11:16:24.819Z,16.94
2022-10-11T11:17:23.842Z,16.96
2022-10-11T11:18:23.795Z,16.93
2022-10-11T11:19:23.786Z,16.90
2022-10-11T11:20:23.801Z,16.97
2022-10-11T11:21:23.798Z,17.08
2022-10-11T11:22:23.753Z,17.14
2022-10-11T11:23:23.744Z,17.05
2022-10-11T11:24:23.730Z,17.15
2022-10-11T11:25:23.723Z,17.09
2022-10-11T11:26:23.732Z,17.11
2022-10-11T11:27:23.702Z,16.96
2022-10-11T11:28:23.721Z,17.01
2022-10-11T11:29:23.672Z,17.15
2022-10-11T11:30:23.662Z,17.20
2022-10-11T11:31:23.653Z,17.38
2022-10-11T11:32:23.664Z,17.51
2022-10-11T11:33:23.624Z,17.60
2022-10-11T11:34:23.613Z,17.79
2022-10-11T11:35:23.604Z,17.74
2022-10-11T11:36:23.591Z,17.80
2022-10-11T11:37:23.584Z,17.74
2022-10-11T11:38:27.229Z,17.67
2022-10-11T11:39:24.563Z,17.72
2022-10-11T11:40:23.545Z,17.65
2022-10-11T11:41:23.537Z,17.72
2022-10-11T11:42:23.524Z,17.52
2022-10-11T11:43:23.514Z,17.57
2022-10-11T11:44:27.296Z,17.59
2022-10-11T11:45:23.494Z,17.70
2022-10-11T11:46:23.475Z,17.64
2022-10-11T11:47:23.473Z,17.52
2022-10-11T11:48:23.492Z,17.48
2022-10-11T11:49:23.468Z,17.38
2022-10-11T11:50:23.435Z,17.31
2022-10-11T11:51:25.470Z,17.34
2022-10-11T11:52:23.409Z,17.38
2022-10-11T11:53:23.396Z,17.36
2022-10-11T11:54:23.386Z,17.41
2022-10-11T11:55:23.406Z,17.54
2022-10-11T11:56:23.395Z,17.46
2022-10-11T11:57:23.355Z,17.41
2022-10-11T11:58:23.343Z,17.20
2022-10-11T11:59:23.335Z,17.14
2022-10-11T12:00:23.324Z,17.26
2022-10-11T12:01:26.449Z,17.36
2022-10-11T12:02:24.402Z,17.48
2022-10-11T12:03:23.286Z,17.30
2022-10-11T12:04:23.277Z,17.42
2022-10-11T12:05:23.265Z,17.42
2022-10-11T12:06:23.255Z,17.36
2022-10-11T12:07:23.256Z,17.44
2022-10-11T12:08:23.226Z,17.54
2022-10-11T12:09:23.215Z,17.60
2022-10-11T12:10:23.214Z,17.52
2022-10-11T12:11:23.197Z,17.60
2022-10-11T12:12:23.236Z,17.79
2022-10-11T12:13:23.175Z,17.85
2022-10-11T12:14:23.158Z,18.01
2022-10-11T12:15:23.169Z,18.03
2022-10-11T12:16:23.158Z,17.83
2022-10-11T12:17:23.127Z,17.71
2022-10-11T12:18:23.145Z,17.67
2022-10-11T12:19:23.098Z,17.68
2022-10-11T12:20:23.100Z,17.83
2022-10-11T12:21:23.079Z,17.95
2022-10-11T12:22:23.067Z,17.98
2022-10-11T12:23:23.093Z,18.08
2022-10-11T12:24:23.072Z,18.11
2022-10-11T12:25:23.035Z,17.98
2022-10-11T12:26:23.028Z,17.95
2022-10-11T12:27:23.008Z,18.05
2022-10-11T12:28:23.055Z,18.05
2022-10-11T12:29:28.221Z,17.87
2022-10-11T12:30:23.992Z,17.80
2022-10-11T12:31:22.967Z,17.79
2022-10-11T12:32:22.958Z,17.83
2022-10-11T12:33:22.939Z,17.83
2022-10-11T12:34:22.930Z,17.94
2022-10-11T12:35:22.947Z,17.85
2022-10-11T12:36:22.909Z,17.83
2022-10-11T12:37:22.901Z,17.83
2022-10-11T12:38:22.890Z,17.89
2022-10-11T12:39:22.872Z,17.86
2022-10-11T12:40:22.868Z,17.90
2022-10-11T12:41:22.871Z,18.00
2022-10-11T12:42:22.853Z,18.10
2022-10-11T12:43:22.839Z,18.07
2022-10-11T12:44:22.830Z,18.05
2022-10-11T12:45:22.804Z,18.00
2022-10-11T12:46:22.800Z,17.90
2022-10-11T12:47:22.802Z,17.90
2022-10-11T12:48:22.770Z,17.98
2022-10-11T12:49:22.761Z,17.92
2022-10-11T12:50:22.760Z,18.05
2022-10-11T12:51:22.743Z,18.11
2022-10-11T12:52:22.732Z,18.00
2022-10-11T12:53:22.766Z,17.87
2022-10-11T12:54:27.375Z,17.83
2022-10-11T12:55:23.845Z,17.87
2022-10-11T12:56:22.680Z,17.86
2022-10-11T12:57:22.670Z,17.78
2022-10-11T12:58:22.664Z,17.89